• Join FlightAware (Why Join?)
  • Login
  • US Flag 
08:04AM EDT


 

Airport Tracker/Info


-or-


 

Live Flight TrackerFlight Track Log ✈ PDT4314 ✈ 29-Aug-2013 ✈ KPHL - KBGM

Flight Track Log - Related Links

Times and Time Zones

All times are in EDT time to prevent confusion due to time zone crossing. See the PDT4314 flight status page for this flight to view local times or setup timezone preferences in your user account.

Time Position Orientation Groundspeed Altitude Reporting Facility
EDT Latitude Longitude Course Direction KTS MPH feet Rate Location/Type
04:56PM 39.8833 -75.2000 North 124 143 700  Level Philadelphia TRACON
04:57PM 39.9167 -75.1667 37° Northeast 148 170 2,100 1,260 Climbing Philadelphia TRACON
04:58PM 39.9500 -75.1333 37° Northeast 160 184 3,300 1,260 Climbing Philadelphia TRACON
04:59PM 40.0128 -75.3628 323° Northwest  Level FlightAware Approximate
04:59PM 40.0000 -75.1500 346° North 151 174 4,700  Level Philadelphia TRACON
05:00PM 40.0607 -75.4107 323° Northwest  Level FlightAware Approximate
05:00PM 40.0167 -75.1833 303° West 176 203 6,000  Level Philadelphia TRACON
05:01PM 40.1094 -75.4521 303° West  Level FlightAware Approximate
05:01PM 40.0000 -75.2500 252° West 172 198 7,000  Level Philadelphia TRACON
05:02PM 40.1551 -75.5000 North  Level FlightAware Approximate
05:02PM 40.0333 -75.2833 323° Northwest 216 249 7,400  Level Philadelphia TRACON
05:03PM 40.0667 -75.3333 311° West 177 204 8,700 1,020 Climbing Philadelphia TRACON
05:04PM 40.1000 -75.4000 303° West 182 209 9,500 840 Climbing Philadelphia TRACON
05:05PM 40.1333 -75.4500 311° West 179 206 10,400 780 Climbing Philadelphia TRACON
05:07PM 40.1716 -75.5073 311° West  Level FlightAware Approximate
05:07PM 40.2108 -75.5408 311° West 186 214 12,000  Level New York Center
05:08PM 40.2483 -75.5953 312° West 192 221 12,000  Level New York Center
05:09PM 40.2836 -75.6522 309° West 213 245 12,000  Level New York Center
05:10PM 40.3247 -75.7122 312° West 213 245 12,000  Level New York Center
05:11PM 40.3858 -75.7439 338° Northwest 213 245 12,000  Level New York Center
05:12PM 40.4408 -75.7750 337° Northwest 213 245 12,000  Level New York Center
05:13PM 40.4956 -75.8117 333° Northwest 213 245 12,000  Level New York Center
05:14PM 40.5467 -75.8347 341° North 213 245 12,000  Level New York Center
05:15PM 40.6036 -75.8661 337° Northwest 213 245 12,000  Level New York Center
05:16PM 40.6647 -75.9008 337° Northwest 213 245 12,000  Level New York Center
05:17PM 40.7219 -75.9269 341° North 213 245 12,000  Level New York Center
05:18PM 40.7786 -75.9642 334° Northwest 213 245 12,000  Level New York Center
05:19PM 40.8297 -75.9900 339° North 213 245 12,000  Level New York Center
05:20PM 40.8869 -76.0164 341° North 208 239 12,000  Level New York Center
05:21PM 40.9478 -76.0539 335° Northwest 208 239 12,000  Level New York Center
05:23PM 41.0025 -76.0835 338° Northwest  Level FlightAware Approximate
05:23PM 41.0558 -76.1064 338° Northwest 213 245 12,000  Level New York Center
05:24PM 41.1106 -76.1411 334° Northwest 213 245 12,000  Level New York Center
05:25PM 41.1714 -76.1761 337° Northwest 213 245 12,000  Level New York Center
05:26PM 41.2283 -76.2028 341° North 213 245 12,000  Level New York Center
05:27PM 41.2908 -76.2050 358° North 213 245 12,000  Level New York Center
05:28PM 41.3453 -76.2011 North 218 251 12,000  Level New York Center
05:29PM 41.4142 -76.1983 North 218 251 12,000  Level New York Center
05:30PM 41.4728 -76.1922 North 218 251 12,000  Level New York Center
05:31PM 41.5333 -76.1831 North 218 251 12,000  Level New York Center
05:32PM 41.5897 -76.1794 North 218 251 12,000 -240 Level New York Center
05:33PM 41.6503 -76.1761 North 218 251 11,600 -780 Descending New York Center
05:34PM 41.7194 -76.1706 North 218 251 10,500 -1,080 Descending New York Center
05:35PM 41.7822 -76.1617 North 218 251 9,500 -960 Descending New York Center
05:36PM 41.8439 -76.1333 19° North 223 257 8,600 -960 Descending New York Center
05:37PM 41.8989 -76.1125 16° North 229 264 7,600 -1,020 Descending New York Center
05:38PM 41.9603 -76.0897 15° North 229 264 6,600 -1,080 Descending New York Center
05:39PM 42.0264 -76.0586 19° North 229 264 5,500 -900 Descending New York Center
05:40PM 42.0736 -76.0261 27° Northeast 229 264 4,800 -780 Descending New York Center
05:41PM 42.1111 -75.9789 43° Northeast 204 235 4,000 -900 Descending New York Center
05:42PM 42.1436 -75.9478 35° Northeast 169 194 3,000 -960 Descending New York Center
05:43PM 42.1747 -75.9531 353° North 124 143 2,100 -960 Descending New York Center